Time;durP1;ratioP1;P1;durP2;ratioP2;P2;SDS_P1;SDS_P2;PMS_P1;PMS_P2;Temp;Humidity;BMP_temperature;BMP_pressure;BME280_temperature;BME280_humidity;BME280_pressure;Samples;Min_cycle;Max_cycle;Signal;HPM_P1;HPM_P2
2023/06/14 00:00:44;;;;;;;6.05;2.20;;;19.20;40.10;;;;;;5017513;28;20379;-70
2023/06/14 00:03:11;;;;;;;3.17;1.83;;;19.10;40.00;;;;;;5023343;28;20037;-70
2023/06/14 00:05:42;;;;;;;6.15;2.33;;;19.10;40.30;;;;;;5036262;28;20048;-70
2023/06/14 00:08:11;;;;;;;4.03;1.92;;;19.10;40.40;;;;;;5025914;28;20497;-70
2023/06/14 00:10:38;;;;;;;5.75;2.10;;;19.10;40.40;;;;;;5019655;28;20042;-70
2023/06/14 00:13:04;;;;;;;6.00;1.98;;;19.00;40.30;;;;;;5016812;28;20102;-70
2023/06/14 00:15:31;;;;;;;5.18;2.13;;;19.10;40.40;;;;;;5018443;28;20053;-70
2023/06/14 00:18:03;;;;;;;6.85;2.47;;;19.00;40.40;;;;;;5027353;28;20038;-71
2023/06/14 00:20:33;;;;;;;4.80;2.03;;;19.00;40.60;;;;;;5022975;28;20038;-70
2023/06/14 00:22:59;;;;;;;5.50;2.30;;;19.00;40.50;;;;;;5024393;28;20095;-70
2023/06/14 00:25:26;;;;;;;5.28;2.03;;;19.00;40.60;;;;;;5034740;28;20056;-70
2023/06/14 00:27:53;;;;;;;6.00;2.10;;;19.00;40.50;;;;;;5017812;28;20155;-70
2023/06/14 00:30:19;;;;;;;5.63;1.98;;;18.90;40.50;;;;;;5024946;28;20041;-70
2023/06/14 00:32:45;;;;;;;4.03;1.70;;;18.90;40.60;;;;;;5021812;28;20038;-70
2023/06/14 00:35:11;;;;;;;5.88;1.88;;;18.90;40.90;;;;;;5014759;28;20501;-70
2023/06/14 00:37:37;;;;;;;3.15;1.88;;;18.90;40.80;;;;;;5014824;28;20050;-70
2023/06/14 00:40:04;;;;;;;7.22;2.00;;;18.90;40.90;;;;;;5017390;28;20052;-70
2023/06/14 00:42:30;;;;;;;6.78;2.00;;;18.80;40.90;;;;;;5026695;28;20129;-70
2023/06/14 00:44:56;;;;;;;7.53;2.00;;;18.80;40.90;;;;;;5015858;28;20037;-70
2023/06/14 00:47:22;;;;;;;4.50;1.70;;;18.80;40.90;;;;;;5019804;28;20042;-70
2023/06/14 00:49:50;;;;;;;5.40;1.73;;;18.70;41.10;;;;;;5033095;28;20045;-70
2023/06/14 00:52:17;;;;;;;5.70;2.35;;;18.70;41.20;;;;;;5016759;28;20485;-70
2023/06/14 00:54:43;;;;;;;4.72;1.88;;;18.70;41.30;;;;;;5014412;28;20050;-70
2023/06/14 00:57:13;;;;;;;4.45;1.88;;;18.70;41.40;;;;;;5025212;28;20046;-70
2023/06/14 00:59:42;;;;;;;4.20;1.80;;;18.70;41.90;;;;;;5047455;28;20045;-70
2023/06/14 01:02:08;;;;;;;4.93;2.35;;;18.60;41.50;;;;;;5022783;28;20037;-70
2023/06/14 01:04:34;;;;;;;5.85;2.30;;;18.60;41.60;;;;;;5035227;28;20114;-70
2023/06/14 01:07:09;;;;;;;4.10;1.90;;;18.60;41.70;;;;;;5024294;28;20042;-70
2023/06/14 01:10:06;;;;;;;3.75;1.65;;;18.50;41.80;;;;;;5014490;28;20409;-70
2023/06/14 01:13:21;;;;;;;2.90;1.75;;;18.50;41.90;;;;;;4975537;28;20105;-70
2023/06/14 01:15:49;;;;;;;3.05;1.90;;;18.50;41.90;;;;;;4957956;28;20450;-70
2023/06/14 01:18:17;;;;;;;3.88;2.22;;;18.40;42.10;;;;;;5011955;28;20057;-70
2023/06/14 01:20:49;;;;;;;4.28;1.92;;;18.40;42.30;;;;;;5013795;28;20042;-70
2023/06/14 01:23:16;;;;;;;4.38;1.85;;;18.40;42.50;;;;;;5021983;28;20045;-70
2023/06/14 01:25:44;;;;;;;4.13;2.25;;;18.30;42.60;;;;;;5033943;28;20037;-70
2023/06/14 01:28:11;;;;;;;5.70;2.03;;;18.30;42.70;;;;;;5021502;28;20116;-70
2023/06/14 01:30:44;;;;;;;4.50;2.28;;;18.30;42.80;;;;;;5050357;28;20388;-70
2023/06/14 01:33:13;;;;;;;2.13;1.45;;;18.30;42.90;;;;;;5024055;28;20041;-71
2023/06/14 01:35:38;;;;;;;4.38;2.13;;;18.20;43.00;;;;;;5033630;28;20139;-70
2023/06/14 01:38:06;;;;;;;4.85;2.00;;;18.10;43.20;;;;;;5021484;28;20077;-70
2023/06/14 01:40:34;;;;;;;4.15;1.70;;;18.10;43.30;;;;;;5033139;28;20484;-70
2023/06/14 01:43:02;;;;;;;4.78;1.98;;;18.10;43.50;;;;;;5026823;28;20045;-70
2023/06/14 01:45:28;;;;;;;4.55;1.90;;;18.00;43.60;;;;;;5031963;28;20481;-69
2023/06/14 01:47:55;;;;;;;6.32;1.75;;;18.00;43.80;;;;;;5017905;28;20041;-69
2023/06/14 01:50:21;;;;;;;6.22;2.20;;;18.00;43.80;;;;;;5013417;28;20116;-69
2023/06/14 01:52:46;;;;;;;5.63;1.85;;;17.90;43.90;;;;;;5031144;28;20129;-69
2023/06/14 01:55:12;;;;;;;4.25;1.77;;;17.90;44.10;;;;;;5019451;28;20046;-69
2023/06/14 01:57:38;;;;;;;4.28;1.85;;;17.90;44.20;;;;;;5027760;28;20463;-69
2023/06/14 02:00:10;;;;;;;5.57;1.75;;;17.90;44.40;;;;;;5034080;28;20044;-69
2023/06/14 02:02:36;;;;;;;4.60;2.22;;;17.90;44.40;;;;;;5019491;28;20084;-69
2023/06/14 02:05:02;;;;;;;3.42;1.75;;;17.80;44.50;;;;;;5020676;28;20455;-69
2023/06/14 02:07:27;;;;;;;4.53;1.73;;;17.80;44.50;;;;;;5014329;28;20135;-69
2023/06/14 02:09:53;;;;;;;2.95;1.70;;;17.80;44.70;;;;;;5027180;28;20134;-69
2023/06/14 02:12:19;;;;;;;3.72;1.50;;;17.80;44.70;;;;;;5022355;28;20104;-69
2023/06/14 02:14:45;;;;;;;2.30;1.60;;;17.80;44.70;;;;;;5020877;28;20189;-69
2023/06/14 02:17:10;;;;;;;5.90;2.05;;;17.80;44.80;;;;;;5043495;28;20041;-69
2023/06/14 02:19:36;;;;;;;4.22;1.80;;;17.80;44.90;;;;;;5033178;28;20041;-69
2023/06/14 02:22:02;;;;;;;3.03;1.83;;;17.80;45.00;;;;;;5023538;28;20549;-69
2023/06/14 02:24:27;;;;;;;4.20;1.70;;;17.80;45.60;;;;;;5012447;28;20467;-69
2023/06/14 02:26:53;;;;;;;4.47;1.77;;;17.80;45.20;;;;;;5015773;28;20512;-69
2023/06/14 02:29:19;;;;;;;4.45;1.70;;;17.80;45.30;;;;;;5013859;28;20045;-70
2023/06/14 02:31:46;;;;;;;4.70;1.73;;;17.80;45.50;;;;;;5010454;28;20049;-69
2023/06/14 02:34:12;;;;;;;3.20;1.60;;;17.80;45.60;;;;;;5013968;28;20533;-69
2023/06/14 02:36:41;;;;;;;3.17;1.48;;;17.70;45.80;;;;;;5012044;28;20177;-69
2023/06/14 02:39:09;;;;;;;3.47;1.90;;;17.70;45.90;;;;;;4992889;28;20129;-69
2023/06/14 02:41:34;;;;;;;3.20;1.70;;;17.60;45.90;;;;;;4992812;28;20568;-69
2023/06/14 02:44:00;;;;;;;3.80;1.67;;;17.60;46.10;;;;;;5024367;28;20049;-70
2023/06/14 02:46:26;;;;;;;2.60;1.30;;;17.60;46.30;;;;;;5044524;28;20044;-69
2023/06/14 02:48:52;;;;;;;4.57;1.92;;;17.50;46.20;;;;;;5032073;28;20099;-69
2023/06/14 02:51:17;;;;;;;3.58;1.73;;;17.50;46.40;;;;;;5017721;28;20140;-69
2023/06/14 02:53:43;;;;;;;4.00;1.90;;;17.50;46.60;;;;;;5009066;28;20045;-69
2023/06/14 02:56:09;;;;;;;3.30;1.55;;;17.40;46.90;;;;;;5028557;28;20444;-69
2023/06/14 02:58:39;;;;;;;3.25;1.88;;;17.40;46.80;;;;;;5033205;28;20120;-69
2023/06/14 03:01:08;;;;;;;5.43;1.80;;;17.40;46.90;;;;;;5048117;28;20516;-69
2023/06/14 03:03:33;;;;;;;4.60;1.50;;;17.40;47.10;;;;;;5036500;28;20084;-69
2023/06/14 03:06:04;;;;;;;2.75;1.90;;;17.30;47.20;;;;;;5014777;28;20069;-69
2023/06/14 03:08:31;;;;;;;3.78;1.90;;;17.30;47.40;;;;;;5031650;28;20088;-69
2023/06/14 03:10:57;;;;;;;4.65;2.03;;;17.30;47.60;;;;;;5031835;28;20060;-69
2023/06/14 03:13:23;;;;;;;3.72;2.00;;;17.20;47.80;;;;;;5022890;28;20029;-69
2023/06/14 03:15:50;;;;;;;2.97;1.60;;;17.20;47.90;;;;;;5013221;28;20370;-69
2023/06/14 03:18:16;;;;;;;3.42;1.65;;;17.20;47.90;;;;;;4998747;28;20057;-69
2023/06/14 03:20:42;;;;;;;5.03;1.80;;;17.20;48.00;;;;;;5011878;28;20092;-69
2023/06/14 03:23:08;;;;;;;4.53;1.65;;;17.20;48.10;;;;;;5017783;28;20041;-69
2023/06/14 03:25:38;;;;;;;6.93;1.60;;;17.20;48.30;;;;;;5031492;28;20038;-69
2023/06/14 03:28:07;;;;;;;4.80;1.70;;;17.10;48.20;;;;;;5015729;28;20444;-69
2023/06/14 03:30:32;;;;;;;2.88;1.52;;;17.10;48.40;;;;;;5011777;28;20045;-69
2023/06/14 03:33:00;;;;;;;4.35;2.00;;;17.10;48.40;;;;;;5017623;28;20045;-69
2023/06/14 03:35:27;;;;;;;3.60;1.42;;;17.10;48.80;;;;;;5048365;28;20060;-69
2023/06/14 03:37:53;;;;;;;8.30;1.80;;;17.00;48.80;;;;;;5014077;28;20053;-69
2023/06/14 03:40:22;;;;;;;4.00;1.85;;;17.00;48.90;;;;;;5016543;28;20046;-69
2023/06/14 03:42:47;;;;;;;4.53;2.00;;;17.00;49.00;;;;;;5022583;28;20045;-69
2023/06/14 03:45:13;;;;;;;3.50;1.67;;;17.00;49.10;;;;;;5035459;28;20401;-69
2023/06/14 03:47:39;;;;;;;5.03;2.00;;;17.00;49.20;;;;;;5019582;28;20042;-69
2023/06/14 03:50:05;;;;;;;2.90;2.13;;;17.00;49.50;;;;;;4999403;28;20049;-69
2023/06/14 03:52:32;;;;;;;4.95;1.80;;;17.00;49.60;;;;;;5015575;28;20042;-69
2023/06/14 03:55:00;;;;;;;4.30;2.03;;;17.00;49.80;;;;;;5015481;28;20095;-69
2023/06/14 03:57:26;;;;;;;5.57;2.20;;;17.00;50.10;;;;;;5027946;28;20049;-69
2023/06/14 03:59:52;;;;;;;4.95;2.05;;;16.90;50.20;;;;;;5034986;28;20045;-69
2023/06/14 04:02:17;;;;;;;6.20;1.80;;;16.90;50.30;;;;;;5035463;28;20057;-69
2023/06/14 04:04:45;;;;;;;4.22;2.00;;;16.90;50.50;;;;;;5017843;28;20448;-69
2023/06/14 04:07:15;;;;;;;4.75;1.85;;;16.80;50.70;;;;;;5021974;28;20489;-69
2023/06/14 04:09:41;;;;;;;3.88;1.92;;;16.80;50.80;;;;;;5015283;28;20052;-69
2023/06/14 04:12:08;;;;;;;3.00;2.22;;;16.80;51.10;;;;;;5015275;28;20129;-69
2023/06/14 04:14:34;;;;;;;5.75;2.40;;;16.70;51.30;;;;;;5015442;28;20473;-69
2023/06/14 04:17:00;;;;;;;3.67;1.88;;;16.70;51.70;;;;;;5020547;28;20041;-69
2023/06/14 04:19:26;;;;;;;5.47;1.80;;;16.70;51.90;;;;;;5014972;28;20488;-69
2023/06/14 04:21:52;;;;;;;3.90;1.90;;;16.60;51.90;;;;;;5015087;28;20042;-69
2023/06/14 04:24:18;;;;;;;2.88;1.90;;;16.60;52.20;;;;;;5015875;28;20042;-69
2023/06/14 04:26:47;;;;;;;7.00;2.35;;;16.60;52.40;;;;;;5004324;28;20091;-69
2023/06/14 04:29:15;;;;;;;3.75;2.10;;;16.50;52.50;;;;;;5016416;28;20042;-69
2023/06/14 04:31:45;;;;;;;3.88;1.98;;;16.50;52.70;;;;;;5015468;28;20050;-69
2023/06/14 04:34:18;;;;;;;3.45;2.20;;;16.50;52.80;;;;;;5017454;28;20041;-69
2023/06/14 04:36:48;;;;;;;4.03;2.28;;;16.50;53.20;;;;;;5026514;28;20493;-69
2023/06/14 04:39:18;;;;;;;4.68;2.30;;;16.50;53.50;;;;;;5051035;28;20037;-69
2023/06/14 04:41:44;;;;;;;5.75;2.42;;;16.50;53.70;;;;;;5033858;28;20429;-69
2023/06/14 04:44:10;;;;;;;6.78;2.67;;;16.50;53.60;;;;;;5034445;28;20060;-69
2023/06/14 04:46:45;;;;;;;4.07;2.13;;;16.50;53.90;;;;;;5033414;28;20497;-69
2023/06/14 04:49:15;;;;;;;3.28;1.98;;;16.50;54.10;;;;;;5014642;28;20046;-69
2023/06/14 04:51:46;;;;;;;3.08;1.90;;;16.50;54.20;;;;;;5011328;28;20045;-69
2023/06/14 04:54:15;;;;;;;4.57;2.47;;;16.50;54.40;;;;;;4994751;28;20042;-69
2023/06/14 04:56:44;;;;;;;5.80;2.22;;;16.50;54.50;;;;;;5017034;28;20042;-69
2023/06/14 04:59:14;;;;;;;5.50;2.47;;;16.50;54.90;;;;;;5014606;28;20052;-69
2023/06/14 05:01:40;;;;;;;5.82;2.53;;;16.50;54.90;;;;;;5027503;28;20068;-69
2023/06/14 05:04:06;;;;;;;5.85;2.53;;;16.60;55.20;;;;;;5035488;28;20037;-69
2023/06/14 05:06:32;;;;;;;5.15;2.72;;;16.60;55.30;;;;;;5025028;28;20045;-69
2023/06/14 05:08:58;;;;;;;5.10;2.85;;;16.60;55.50;;;;;;5035233;28;20380;-69
2023/06/14 05:11:24;;;;;;;6.70;2.80;;;16.60;55.60;;;;;;5023097;28;20501;-69
2023/06/14 05:13:51;;;;;;;7.32;2.90;;;16.70;55.80;;;;;;5014349;28;20050;-69
2023/06/14 05:16:19;;;;;;;5.00;2.72;;;16.70;55.80;;;;;;5021427;28;20048;-67
2023/06/14 05:18:47;;;;;;;6.63;2.75;;;16.80;55.70;;;;;;5034964;28;20346;-67
2023/06/14 05:21:12;;;;;;;6.32;3.22;;;16.90;55.50;;;;;;5025618;28;20050;-67
2023/06/14 05:23:38;;;;;;;6.57;3.15;;;17.00;55.50;;;;;;5014872;28;20156;-67
2023/06/14 05:26:04;;;;;;;4.78;3.05;;;17.10;55.50;;;;;;5019881;28;20045;-68
2023/06/14 05:28:30;;;;;;;4.93;2.40;;;17.30;55.40;;;;;;5043652;28;20050;-68
2023/06/14 05:30:58;;;;;;;5.03;2.47;;;17.50;55.10;;;;;;5020215;28;20072;-68
2023/06/14 05:33:23;;;;;;;4.72;2.90;;;17.60;54.90;;;;;;5034827;28;20164;-68
2023/06/14 05:35:49;;;;;;;3.75;2.60;;;17.80;54.80;;;;;;5033466;28;20524;-68
2023/06/14 05:38:14;;;;;;;5.28;2.58;;;18.00;54.20;;;;;;5016327;28;20064;-68
2023/06/14 05:40:40;;;;;;;5.10;3.03;;;18.30;53.80;;;;;;5018275;28;20045;-68
2023/06/14 05:43:06;;;;;;;9.27;2.80;;;18.40;53.30;;;;;;5049983;28;20050;-67
2023/06/14 05:45:32;;;;;;;4.50;2.42;;;18.70;53.10;;;;;;5034544;28;20116;-70
2023/06/14 05:47:57;;;;;;;5.07;2.83;;;18.90;52.50;;;;;;5033263;28;20037;-70
2023/06/14 05:50:23;;;;;;;4.88;2.60;;;19.10;52.20;;;;;;5032786;28;20129;-70
2023/06/14 05:52:48;;;;;;;7.00;3.22;;;19.30;51.90;;;;;;5033420;28;20041;-70
2023/06/14 05:55:16;;;;;;;5.07;3.10;;;19.50;51.50;;;;;;5033168;28;20037;-70
2023/06/14 05:57:42;;;;;;;4.68;2.63;;;19.70;50.80;;;;;;5018131;28;20056;-70
2023/06/14 06:00:10;;;;;;;3.83;2.47;;;19.80;50.20;;;;;;4993111;28;20121;-70
2023/06/14 06:02:36;;;;;;;4.13;2.38;;;19.90;49.80;;;;;;5030977;28;20053;-71
2023/06/14 06:05:02;;;;;;;4.78;2.67;;;20.00;49.60;;;;;;5027483;28;20469;-70
2023/06/14 06:07:28;;;;;;;4.10;2.65;;;20.10;49.00;;;;;;5021317;28;20037;-70
2023/06/14 06:09:53;;;;;;;4.53;2.67;;;20.30;48.40;;;;;;5013407;28;20050;-71
2023/06/14 06:12:19;;;;;;;6.25;2.67;;;20.40;48.10;;;;;;5030117;28;20038;-71
2023/06/14 06:14:45;;;;;;;6.30;2.50;;;20.50;47.80;;;;;;5032625;28;20083;-70
2023/06/14 06:17:10;;;;;;;3.50;2.20;;;20.50;47.60;;;;;;5032262;28;20116;-70
2023/06/14 06:19:36;;;;;;;7.55;3.05;;;20.60;47.00;;;;;;5032508;28;20100;-71
2023/06/14 06:22:04;;;;;;;7.78;2.92;;;20.60;47.00;;;;;;5020069;28;20117;-70
2023/06/14 06:24:30;;;;;;;6.25;2.47;;;20.60;46.90;;;;;;5014083;28;20046;-70
2023/06/14 06:26:56;;;;;;;4.22;2.60;;;20.70;46.30;;;;;;5012613;28;20057;-70
2023/06/14 06:29:21;;;;;;;6.20;2.75;;;20.70;46.10;;;;;;5013838;28;20042;-70
2023/06/14 06:31:47;;;;;;;5.68;3.03;;;20.70;45.80;;;;;;5023654;28;20071;-70
2023/06/14 06:34:13;;;;;;;4.78;2.53;;;20.70;45.80;;;;;;5032975;28;20042;-71
2023/06/14 06:36:38;;;;;;;3.92;2.20;;;20.70;45.80;;;;;;5032170;28;20045;-70
2023/06/14 06:39:09;;;;;;;4.90;2.53;;;20.70;46.00;;;;;;5015701;28;20046;-71
2023/06/14 06:41:39;;;;;;;3.45;2.40;;;20.80;46.40;;;;;;5022169;28;20065;-70
2023/06/14 06:44:06;;;;;;;5.70;2.25;;;20.90;45.20;;;;;;5012624;28;20416;-70
2023/06/14 06:46:33;;;;;;;4.03;1.80;;;20.90;45.40;;;;;;5013611;28;20433;-70
2023/06/14 06:48:58;;;;;;;3.58;2.22;;;21.00;45.80;;;;;;5012297;28;20046;-70
2023/06/14 06:51:24;;;;;;;6.47;3.08;;;21.20;45.70;;;;;;5020926;28;20099;-70
2023/06/14 06:53:53;;;;;;;6.32;2.30;;;21.40;45.00;;;;;;5048822;28;20090;-70
2023/06/14 06:56:20;;;;;;;4.50;2.28;;;21.50;45.50;;;;;;5031967;28;20045;-70
2023/06/14 06:58:46;;;;;;;3.72;2.28;;;21.70;44.60;;;;;;5033106;28;20041;-70
2023/06/14 07:01:13;;;;;;;6.15;2.05;;;21.80;44.10;;;;;;5026779;28;20034;-70
2023/06/14 07:03:38;;;;;;;6.75;2.70;;;21.90;44.10;;;;;;5012119;28;20108;-70
2023/06/14 07:06:04;;;;;;;8.13;2.72;;;22.00;43.70;;;;;;5013306;28;20041;-70
2023/06/14 07:08:30;;;;;;;6.07;2.55;;;22.10;43.70;;;;;;5031206;28;20049;-70
2023/06/14 07:10:56;;;;;;;5.60;2.60;;;22.30;43.70;;;;;;5028126;28;20133;-70
2023/06/14 07:13:21;;;;;;;4.70;1.92;;;22.50;43.00;;;;;;5011898;28;20068;-70
2023/06/14 07:15:47;;;;;;;4.53;2.30;;;22.50;42.10;;;;;;5013235;28;20045;-71
2023/06/14 07:18:13;;;;;;;3.60;2.25;;;22.60;41.90;;;;;;5013222;28;20125;-71
2023/06/14 07:20:38;;;;;;;4.65;2.15;;;22.60;42.10;;;;;;5013052;28;20549;-71
2023/06/14 07:23:05;;;;;;;3.22;2.05;;;22.70;41.80;;;;;;5014172;28;20037;-70
2023/06/14 07:25:31;;;;;;;4.22;2.00;;;22.80;41.10;;;;;;5013097;28;20049;-70
2023/06/14 07:27:57;;;;;;;3.58;1.90;;;22.80;40.20;;;;;;5011739;28;20477;-70
2023/06/14 07:30:25;;;;;;;3.35;1.80;;;22.80;40.10;;;;;;5011566;28;20046;-70
2023/06/14 07:32:53;;;;;;;4.72;2.22;;;22.80;39.90;;;;;;5028945;28;20045;-71
2023/06/14 07:35:18;;;;;;;5.22;2.67;;;22.80;40.30;;;;;;5031667;28;20396;-70
2023/06/14 07:37:46;;;;;;;5.85;2.67;;;22.80;40.00;;;;;;5031371;28;20046;-70
2023/06/14 07:40:13;;;;;;;3.95;2.20;;;22.80;40.10;;;;;;5027170;28;20046;-71
2023/06/14 07:42:39;;;;;;;3.20;2.10;;;22.80;40.90;;;;;;5028172;28;20049;-70
2023/06/14 07:45:08;;;;;;;4.38;2.17;;;22.90;41.00;;;;;;5031223;28;20045;-70
2023/06/14 07:47:34;;;;;;;4.13;1.80;;;23.00;39.80;;;;;;5047958;28;20041;-70
2023/06/14 07:50:00;;;;;;;4.25;2.08;;;23.00;39.70;;;;;;5032767;28;20121;-71
2023/06/14 07:52:25;;;;;;;2.60;1.83;;;23.00;39.80;;;;;;5018800;28;20664;-70
2023/06/14 07:54:51;;;;;;;3.45;2.13;;;23.10;39.70;;;;;;5012929;28;20045;-70
2023/06/14 07:57:19;;;;;;;3.63;2.05;;;23.20;40.10;;;;;;5012619;28;20038;-70
2023/06/14 07:59:45;;;;;;;3.42;1.70;;;23.30;39.70;;;;;;5011879;28;20053;-70
2023/06/14 08:02:11;;;;;;;4.65;1.90;;;23.40;39.30;;;;;;4995496;28;20477;-70
2023/06/14 08:04:37;;;;;;;6.65;2.60;;;23.50;39.10;;;;;;5023306;28;20046;-70
2023/06/14 08:07:04;;;;;;;5.10;2.13;;;23.50;39.50;;;;;;5030910;28;20473;-70
2023/06/14 08:09:29;;;;;;;6.38;2.30;;;23.60;39.00;;;;;;5031256;28;20080;-70
2023/06/14 08:11:56;;;;;;;4.38;2.10;;;23.60;38.50;;;;;;5040434;28;20069;-70
2023/06/14 08:14:22;;;;;;;4.97;2.05;;;23.60;38.50;;;;;;5012608;28;20037;-70
2023/06/14 08:16:48;;;;;;;3.85;1.80;;;23.60;38.40;;;;;;4994967;28;20048;-70
2023/06/14 08:19:16;;;;;;;7.78;1.80;;;23.60;38.40;;;;;;5029193;28;20124;-70
2023/06/14 08:21:43;;;;;;;6.38;2.03;;;23.60;38.60;;;;;;5010001;28;20073;-70
2023/06/14 08:24:12;;;;;;;5.45;1.70;;;23.60;37.90;;;;;;5014995;28;20409;-70
2023/06/14 08:26:39;;;;;;;4.00;1.75;;;23.60;37.90;;;;;;5014821;28;20137;-71
2023/06/14 08:29:06;;;;;;;3.70;2.28;;;23.60;37.50;;;;;;5016383;28;20034;-68
2023/06/14 08:31:33;;;;;;;5.28;2.00;;;23.60;37.50;;;;;;5018562;28;20107;-68
2023/06/14 08:33:59;;;;;;;4.55;2.08;;;23.60;38.10;;;;;;5049636;28;20045;-68
2023/06/14 08:36:25;;;;;;;4.70;1.80;;;23.60;37.70;;;;;;5034589;28;20099;-68
2023/06/14 08:38:51;;;;;;;5.00;1.85;;;23.70;37.90;;;;;;5034457;28;20041;-69
2023/06/14 08:41:24;;;;;;;2.35;1.58;;;23.80;37.60;;;;;;5032808;28;20057;-68
2023/06/14 08:43:50;;;;;;;5.93;1.77;;;23.90;37.80;;;;;;5014637;28;20037;-68
2023/06/14 08:46:19;;;;;;;6.68;2.72;;;23.90;38.60;;;;;;5014616;28;20056;-68
2023/06/14 08:48:48;;;;;;;4.93;1.83;;;24.10;37.70;;;;;;5014804;28;20053;-68
2023/06/14 08:51:18;;;;;;;5.63;1.90;;;24.10;37.20;;;;;;5022029;28;20077;-68
2023/06/14 08:53:44;;;;;;;4.43;1.98;;;24.10;36.90;;;;;;5014661;28;20421;-68
2023/06/14 08:56:13;;;;;;;5.28;2.15;;;24.20;37.20;;;;;;5015655;28;20041;-68
2023/06/14 08:58:48;;;;;;;4.57;1.73;;;24.20;36.90;;;;;;5014380;28;20073;-70
2023/06/14 09:01:16;;;;;;;4.63;1.70;;;24.30;37.40;;;;;;5001952;28;20046;-70
2023/06/14 09:03:42;;;;;;;5.78;2.35;;;24.40;37.10;;;;;;5019309;28;20065;-71
2023/06/14 09:06:13;;;;;;;2.85;1.80;;;24.40;37.40;;;;;;5026252;28;20456;-71
2023/06/14 09:08:46;;;;;;;5.60;1.77;;;24.60;37.50;;;;;;5033916;28;20068;-70
2023/06/14 09:11:18;;;;;;;3.17;1.60;;;24.70;36.90;;;;;;4994876;28;20502;-70
2023/06/14 09:13:45;;;;;;;3.97;1.70;;;24.90;37.20;;;;;;5006591;28;20389;-70
2023/06/14 09:16:10;;;;;;;6.53;1.92;;;25.00;36.80;;;;;;5014269;28;20065;-68
2023/06/14 09:18:41;;;;;;;4.10;1.60;;;25.10;36.20;;;;;;5017389;28;20497;-68
2023/06/14 09:21:11;;;;;;;4.32;1.90;;;25.20;36.50;;;;;;5033618;28;20051;-67
2023/06/14 09:23:38;;;;;;;2.15;1.67;;;25.20;35.70;;;;;;5017287;28;20124;-68
2023/06/14 09:26:15;;;;;;;6.63;2.05;;;25.20;35.30;;;;;;5033533;28;20038;-68
2023/06/14 09:28:43;;;;;;;6.32;2.25;;;25.20;35.30;;;;;;5023126;28;20492;-68
2023/06/14 09:31:14;;;;;;;6.28;2.22;;;25.30;35.60;;;;;;5013792;28;20042;-67
2023/06/14 09:33:48;;;;;;;6.03;2.03;;;25.30;35.10;;;;;;5015258;28;20042;-67
2023/06/14 09:36:23;;;;;;;;;;;25.40;35.00;;;;;;5013975;28;20511;-67
2023/06/14 09:38:56;;;;;;;3.78;1.42;;;25.30;35.10;;;;;;5014778;28;19924;-68
2023/06/14 09:41:39;;;;;;;;;;;25.40;35.20;;;;;;4999263;28;20046;-67
2023/06/14 09:44:06;;;;;;;4.93;2.40;;;25.40;35.30;;;;;;4994160;28;19918;-69
2023/06/14 09:46:34;;;;;;;5.00;1.80;;;25.40;34.90;;;;;;4993886;28;20042;-69
2023/06/14 09:49:01;;;;;;;5.30;1.63;;;25.60;34.90;;;;;;4995817;28;20039;-69
2023/06/14 09:51:28;;;;;;;2.38;1.38;;;25.70;34.70;;;;;;5018007;28;20099;-69
2023/06/14 09:54:00;;;;;;;5.15;1.88;;;25.70;34.60;;;;;;5014085;28;20061;-69
2023/06/14 09:56:32;;;;;;;4.15;1.40;;;25.70;33.90;;;;;;5013198;28;20042;-69
2023/06/14 09:58:59;;;;;;;4.53;1.80;;;25.50;34.20;;;;;;5026096;28;20108;-69
2023/06/14 10:01:29;;;;;;;4.32;2.05;;;25.40;34.40;;;;;;5034092;28;20087;-69
2023/06/14 10:04:04;;;;;;;3.22;1.60;;;25.40;34.90;;;;;;5032396;28;20041;-69
2023/06/14 10:06:31;;;;;;;2.85;1.60;;;25.50;35.10;;;;;;5034184;28;20091;-69
2023/06/14 10:08:59;;;;;;;4.30;1.98;;;25.60;35.10;;;;;;5032834;28;20485;-69
2023/06/14 10:11:28;;;;;;;4.35;1.80;;;25.80;34.90;;;;;;5034172;28;20128;-70
2023/06/14 10:13:58;;;;;;;3.08;1.50;;;25.80;34.90;;;;;;5016123;28;20050;-70
2023/06/14 10:16:32;;;;;;;1.63;1.30;;;25.90;34.80;;;;;;4996664;28;20052;-70
2023/06/14 10:19:18;;;;;;;3.03;1.50;;;26.00;34.40;;;;;;5009751;28;21584;-69
2023/06/14 10:22:02;;;;;;;3.33;1.80;;;26.00;34.50;;;;;;5008758;28;20045;-70
2023/06/14 10:24:32;;;;;;;;;;;26.00;34.70;;;;;;5008951;28;20069;-70
2023/06/14 10:26:59;;;;;;;3.58;1.40;;;26.00;35.30;;;;;;5009001;28;19936;-71
2023/06/14 10:29:31;;;;;;;5.07;2.17;;;26.20;34.80;;;;;;5009302;28;20540;-71
2023/06/14 10:31:59;;;;;;;4.63;1.80;;;26.30;34.50;;;;;;5008720;28;20041;-71
2023/06/14 10:34:30;;;;;;;3.10;1.80;;;26.30;34.70;;;;;;4991697;28;20049;-70
2023/06/14 10:37:06;;;;;;;3.22;1.60;;;26.40;34.50;;;;;;5009824;28;20049;-70
2023/06/14 10:39:41;;;;;;;3.13;1.40;;;26.50;34.30;;;;;;5006887;28;20042;-70
2023/06/14 10:42:06;;;;;;;6.72;1.73;;;26.60;34.30;;;;;;5008269;28;20068;-70
2023/06/14 10:44:49;;;;;;;3.03;1.65;;;26.50;34.10;;;;;;5007600;28;20049;-71
2023/06/14 10:47:25;;;;;;;2.97;1.50;;;26.60;34.40;;;;;;5008034;28;20119;-70
2023/06/14 10:49:53;;;;;;;2.88;1.60;;;26.70;34.80;;;;;;5008549;28;20405;-70
2023/06/14 10:52:24;;;;;;;5.70;1.88;;;26.70;34.00;;;;;;5007677;28;20116;-70
2023/06/14 10:55:18;;;;;;;3.47;1.52;;;26.80;34.30;;;;;;4989973;28;20049;-70
2023/06/14 10:57:51;;;;;;;2.53;1.30;;;27.00;34.90;;;;;;5007421;28;20505;-70
2023/06/14 11:00:20;;;;;;;2.42;1.25;;;27.00;34.20;;;;;;5007600;28;20389;-70
2023/06/14 11:02:51;;;;;;;6.35;1.60;;;27.10;33.50;;;;;;5008826;28;20080;-70
2023/06/14 11:05:24;;;;;;;1.77;1.25;;;26.90;33.00;;;;;;5009640;28;20066;-70
2023/06/14 11:07:53;;;;;;;2.63;1.33;;;26.80;32.60;;;;;;5007704;28;20042;-70
2023/06/14 11:10:39;;;;;;;3.00;1.50;;;26.50;32.90;;;;;;5007263;28;20050;-70
2023/06/14 11:13:05;;;;;;;3.75;1.52;;;26.50;33.60;;;;;;5006954;28;20053;-70
2023/06/14 11:15:32;;;;;;;1.95;1.00;;;26.40;33.70;;;;;;5009695;28;20140;-70
2023/06/14 11:18:01;;;;;;;3.13;1.50;;;26.40;32.90;;;;;;5007901;28;20541;-70
2023/06/14 11:20:29;;;;;;;2.83;1.08;;;26.30;32.70;;;;;;5014500;28;20495;-72
2023/06/14 11:22:55;;;;;;;1.90;0.95;;;26.30;33.00;;;;;;5040799;28;20077;-71
2023/06/14 11:25:21;;;;;;;2.50;0.93;;;26.30;33.20;;;;;;5032812;28;20088;-71
2023/06/14 11:27:49;;;;;;;2.53;1.20;;;26.30;33.50;;;;;;5048028;28;20037;-70
2023/06/14 11:30:15;;;;;;;3.05;1.20;;;26.40;33.30;;;;;;5031684;28;20053;-70
2023/06/14 11:32:40;;;;;;;2.83;1.30;;;26.40;33.30;;;;;;5031558;28;20056;-70
2023/06/14 11:35:08;;;;;;;5.10;1.73;;;26.30;32.40;;;;;;5031008;28;20072;-70
2023/06/14 11:37:37;;;;;;;1.95;1.20;;;26.20;33.20;;;;;;5032892;28;20041;-70
2023/06/14 11:40:08;;;;;;;2.83;1.05;;;26.20;33.30;;;;;;5031212;28;20493;-70
2023/06/14 11:42:34;;;;;;;3.53;1.15;;;26.20;33.10;;;;;;5031444;28;20099;-70
2023/06/14 11:44:59;;;;;;;2.35;1.20;;;26.20;33.40;;;;;;5031528;28;20049;-70
2023/06/14 11:47:32;;;;;;;1.83;1.20;;;26.30;33.20;;;;;;5031411;28;20121;-70
2023/06/14 11:50:02;;;;;;;2.60;1.13;;;26.30;33.00;;;;;;5030733;28;20049;-70
2023/06/14 11:52:28;;;;;;;3.58;1.20;;;26.40;33.30;;;;;;5015927;28;20564;-70
2023/06/14 11:54:54;;;;;;;2.97;1.23;;;26.40;33.00;;;;;;4995324;28;20053;-70
2023/06/14 11:57:20;;;;;;;2.92;1.27;;;26.40;32.70;;;;;;5013600;28;20042;-70
2023/06/14 11:59:46;;;;;;;4.07;1.20;;;26.40;32.70;;;;;;5015563;28;20046;-70
2023/06/14 12:02:16;;;;;;;3.70;1.42;;;26.40;32.20;;;;;;5015575;28;20104;-70
2023/06/14 12:04:48;;;;;;;2.38;1.20;;;26.40;32.60;;;;;;5015522;28;20046;-70
2023/06/14 12:07:19;;;;;;;1.42;0.90;;;26.30;32.20;;;;;;5026403;28;20045;-70
2023/06/14 12:09:54;;;;;;;1.92;1.10;;;26.20;32.60;;;;;;5016959;28;20465;-70
2023/06/14 12:12:29;;;;;;;4.53;1.38;;;26.10;32.70;;;;;;5016965;28;20088;-70
2023/06/14 12:14:56;;;;;;;5.05;1.50;;;26.20;32.70;;;;;;5018830;28;20378;-70
2023/06/14 12:17:22;;;;;;;3.10;1.20;;;26.20;32.70;;;;;;5051014;28;20045;-70
2023/06/14 12:19:49;;;;;;;4.75;1.42;;;26.20;32.60;;;;;;5032240;28;20037;-69
2023/06/14 12:22:16;;;;;;;3.15;1.02;;;26.20;32.80;;;;;;5016473;28;20409;-69
2023/06/14 12:24:45;;;;;;;2.22;1.27;;;26.10;32.70;;;;;;5015262;28;20508;-69
2023/06/14 12:27:15;;;;;;;4.13;1.80;;;26.10;33.30;;;;;;5017905;28;20042;-69
2023/06/14 12:29:45;;;;;;;5.40;1.20;;;26.10;33.60;;;;;;5031808;28;20079;-71
2023/06/14 12:32:11;;;;;;;3.45;1.23;;;26.20;33.40;;;;;;5027347;28;20044;-70
2023/06/14 12:34:37;;;;;;;4.10;1.50;;;26.30;33.00;;;;;;5029669;28;20111;-70
2023/06/14 12:37:03;;;;;;;3.53;1.10;;;26.30;32.60;;;;;;4995228;28;20486;-70
2023/06/14 12:39:33;;;;;;;2.42;1.30;;;26.30;32.90;;;;;;5014324;28;20046;-70
2023/06/14 12:41:59;;;;;;;3.95;1.25;;;26.30;32.70;;;;;;5016135;28;20045;-69
2023/06/14 12:44:25;;;;;;;2.08;1.45;;;26.30;32.50;;;;;;5014573;28;20050;-70
2023/06/14 12:46:54;;;;;;;4.30;1.40;;;26.30;32.40;;;;;;5015581;28;20037;-67
2023/06/14 12:49:20;;;;;;;3.60;1.20;;;26.30;32.90;;;;;;5016312;28;20034;-67
2023/06/14 12:51:46;;;;;;;2.75;1.10;;;26.20;32.70;;;;;;5001343;28;20130;-67